createdAt,value
2024-02-02T00:01:30.264Z,22.80
2024-02-02T00:03:56.963Z,21.87
2024-02-02T00:06:23.789Z,26.90
2024-02-02T00:08:50.405Z,26.73
2024-02-02T00:11:17.176Z,27.77
2024-02-02T00:13:43.829Z,25.20
2024-02-02T00:16:10.457Z,24.00
2024-02-02T00:18:37.165Z,18.73
2024-02-02T00:21:04.323Z,21.53
2024-02-02T00:23:30.928Z,23.10
2024-02-02T00:25:57.511Z,22.07
2024-02-02T00:28:24.397Z,22.87
2024-02-02T00:30:50.965Z,25.13
2024-02-02T00:33:17.676Z,27.70
2024-02-02T00:35:44.343Z,21.63
2024-02-02T00:38:10.858Z,20.37
2024-02-02T00:40:37.427Z,22.80
2024-02-02T00:43:04.209Z,20.77
2024-02-02T00:45:30.800Z,21.43
2024-02-02T00:47:57.561Z,18.57
2024-02-02T00:50:24.989Z,17.47
2024-02-02T00:52:51.593Z,17.67
2024-02-02T00:55:18.263Z,19.97
2024-02-02T00:57:44.844Z,16.83
2024-02-02T01:00:12.039Z,19.57
2024-02-02T01:02:40.321Z,18.70
2024-02-02T01:05:07.176Z,18.23
2024-02-02T01:07:33.751Z,19.67
2024-02-02T01:10:00.551Z,22.57
2024-02-02T01:12:27.307Z,21.40
2024-02-02T01:14:56.341Z,22.40
2024-02-02T01:17:22.983Z,18.43
2024-02-02T01:19:49.581Z,18.90
2024-02-02T01:22:16.248Z,20.40
2024-02-02T01:24:43.249Z,18.23
2024-02-02T01:27:09.865Z,24.13
2024-02-02T01:29:36.399Z,23.80
2024-02-02T01:32:03.018Z,19.63
2024-02-02T01:34:29.951Z,19.80
2024-02-02T01:36:56.563Z,24.07
2024-02-02T01:39:23.119Z,23.97
2024-02-02T01:41:50.379Z,18.20
2024-02-02T01:44:16.979Z,24.00
2024-02-02T01:46:50.219Z,24.23
2024-02-02T01:49:17.093Z,22.47
2024-02-02T01:51:43.800Z,25.67
2024-02-02T01:54:11.226Z,48.77
2024-02-02T01:56:38.277Z,31.47
2024-02-02T01:59:06.116Z,23.47
2024-02-02T02:01:33.312Z,26.13
2024-02-02T02:04:00.085Z,25.50
2024-02-02T02:06:26.899Z,26.47
2024-02-02T02:08:53.629Z,25.77
2024-02-02T02:11:20.265Z,28.83
2024-02-02T02:13:46.934Z,29.47
2024-02-02T02:16:13.592Z,26.37
2024-02-02T02:18:52.050Z,32.67
2024-02-02T02:21:26.615Z,22.23
2024-02-02T02:23:54.133Z,24.33
2024-02-02T02:26:21.431Z,19.10
2024-02-02T02:28:49.048Z,21.30
2024-02-02T02:31:17.039Z,22.20
2024-02-02T02:33:45.275Z,34.00
2024-02-02T02:36:15.469Z,24.70
2024-02-02T02:38:44.191Z,23.10
2024-02-02T02:41:11.208Z,23.07
2024-02-02T02:43:37.758Z,28.23
2024-02-02T02:46:04.596Z,31.00
2024-02-02T02:48:31.452Z,28.50
2024-02-02T02:50:58.276Z,23.57
2024-02-02T02:53:24.871Z,23.50
2024-02-02T02:55:51.398Z,25.60
2024-02-02T02:58:18.069Z,26.77
2024-02-02T03:00:47.661Z,28.17
2024-02-02T03:03:14.446Z,26.07
2024-02-02T03:05:41.522Z,30.63
2024-02-02T03:08:08.932Z,30.07
2024-02-02T03:10:37.843Z,23.70
2024-02-02T03:13:04.663Z,30.97
2024-02-02T03:15:32.977Z,24.90
2024-02-02T03:17:59.807Z,26.57
2024-02-02T03:20:29.939Z,55.93
2024-02-02T03:22:56.893Z,36.43
2024-02-02T03:25:23.497Z,63.63
2024-02-02T03:27:50.069Z,122.73
2024-02-02T03:30:16.770Z,122.20
2024-02-02T03:32:45.442Z,44.37
2024-02-02T03:35:12.514Z,25.77
2024-02-02T03:37:40.149Z,33.93
2024-02-02T03:40:07.334Z,51.73
2024-02-02T03:42:34.044Z,54.70
2024-02-02T03:45:00.696Z,36.77
2024-02-02T03:47:27.393Z,31.47
2024-02-02T03:49:54.217Z,28.03
2024-02-02T03:52:25.235Z,33.00
2024-02-02T03:54:52.231Z,31.17
2024-02-02T03:57:19.485Z,30.23
2024-02-02T03:59:46.195Z,26.43
2024-02-02T04:02:13.191Z,26.23
2024-02-02T04:04:40.527Z,33.80
2024-02-02T04:07:07.291Z,37.90
2024-02-02T04:09:34.089Z,33.13
2024-02-02T04:12:00.977Z,39.30
2024-02-02T04:14:27.632Z,28.50
2024-02-02T04:16:54.190Z,80.10
2024-02-02T04:19:22.275Z,70.93
2024-02-02T04:21:49.119Z,76.47
2024-02-02T04:24:15.849Z,35.67
2024-02-02T04:26:42.529Z,38.00
2024-02-02T04:29:09.674Z,51.03
2024-02-02T04:31:36.568Z,48.43
2024-02-02T04:34:03.434Z,29.50
2024-02-02T04:36:31.714Z,29.23
2024-02-02T04:38:58.566Z,34.23
2024-02-02T04:41:25.969Z,26.83
2024-02-02T04:43:52.585Z,40.17
2024-02-02T04:46:19.197Z,50.50
2024-02-02T04:48:45.931Z,50.50
2024-02-02T04:51:12.628Z,54.47
2024-02-02T04:53:39.307Z,149.57
2024-02-02T04:56:06.174Z,62.33
2024-02-02T04:58:32.767Z,94.57
2024-02-02T05:00:59.350Z,100.87
2024-02-02T05:03:26.093Z,109.50
2024-02-02T05:05:52.715Z,108.87
2024-02-02T05:08:19.562Z,82.30
2024-02-02T05:10:46.142Z,48.83
2024-02-02T05:13:12.999Z,48.60
2024-02-02T05:15:41.640Z,26.70
2024-02-02T05:18:08.585Z,25.50
2024-02-02T05:20:35.259Z,30.63
2024-02-02T05:23:01.842Z,25.10
2024-02-02T05:25:28.921Z,31.70
2024-02-02T05:27:55.577Z,25.67
2024-02-02T05:30:22.555Z,25.40
2024-02-02T05:32:49.230Z,27.97
2024-02-02T05:35:15.815Z,34.10
2024-02-02T05:37:42.433Z,31.00
2024-02-02T05:40:09.559Z,26.07
2024-02-02T05:42:36.168Z,34.03
2024-02-02T05:45:02.936Z,25.33
2024-02-02T05:47:29.558Z,30.43
2024-02-02T05:49:56.307Z,30.03
2024-02-02T05:52:23.004Z,30.07
2024-02-02T05:54:49.576Z,31.80
2024-02-02T05:57:16.281Z,30.67
2024-02-02T05:59:42.875Z,28.40
2024-02-02T06:02:09.500Z,23.40
2024-02-02T06:04:36.191Z,25.83
2024-02-02T06:07:02.938Z,23.17
2024-02-02T06:09:30.267Z,23.67
2024-02-02T06:11:56.893Z,28.87
2024-02-02T06:14:26.510Z,29.97
2024-02-02T06:16:53.094Z,31.37
2024-02-02T06:19:19.865Z,23.07
2024-02-02T06:21:46.528Z,24.30
2024-02-02T06:24:13.178Z,30.57
2024-02-02T06:26:39.897Z,25.90
2024-02-02T06:29:06.586Z,26.20
2024-02-02T06:31:33.116Z,22.87
2024-02-02T06:33:59.740Z,23.50
2024-02-02T06:36:28.346Z,25.50
2024-02-02T06:38:57.271Z,26.13
2024-02-02T06:41:24.226Z,30.33
2024-02-02T06:43:51.202Z,25.43
2024-02-02T06:46:17.945Z,25.37
2024-02-02T06:48:46.003Z,35.03
2024-02-02T06:51:12.747Z,19.57
2024-02-02T06:53:40.151Z,24.23
2024-02-02T06:56:32.284Z,28.70
2024-02-02T06:58:58.842Z,27.73
2024-02-02T07:01:26.377Z,27.07
2024-02-02T07:03:53.257Z,32.07
2024-02-02T07:06:20.096Z,30.07
2024-02-02T07:08:46.730Z,23.30
2024-02-02T07:11:13.237Z,25.83
2024-02-02T07:13:52.413Z,89.67
2024-02-02T07:16:30.860Z,43.20
2024-02-02T07:18:57.898Z,32.43
2024-02-02T07:21:32.497Z,33.83
2024-02-02T07:23:59.808Z,36.87
2024-02-02T07:26:32.213Z,31.23
2024-02-02T07:28:59.672Z,34.17
2024-02-02T07:31:32.122Z,27.03
2024-02-02T07:34:22.933Z,28.70
2024-02-02T07:36:49.624Z,23.37
2024-02-02T07:39:31.576Z,29.90
2024-02-02T07:42:01.836Z,32.20
2024-02-02T07:44:28.575Z,27.30
2024-02-02T07:46:55.198Z,26.70
2024-02-02T07:49:21.961Z,30.37
2024-02-02T07:51:48.561Z,37.97
2024-02-02T07:54:15.310Z,35.20
2024-02-02T07:56:42.136Z,51.03
2024-02-02T07:59:08.702Z,43.40
2024-02-02T08:01:36.755Z,32.90
2024-02-02T08:04:03.835Z,26.83
2024-02-02T08:06:30.567Z,29.80
2024-02-02T08:08:58.471Z,33.90
2024-02-02T08:11:26.906Z,29.20
2024-02-02T08:13:53.538Z,28.13
2024-02-02T08:16:20.183Z,31.10
2024-02-02T08:18:47.311Z,28.93
2024-02-02T08:21:14.055Z,30.57
2024-02-02T08:23:43.858Z,32.13
2024-02-02T08:26:10.414Z,25.53
2024-02-02T08:28:45.657Z,26.87
2024-02-02T08:31:18.171Z,31.77
2024-02-02T08:33:44.939Z,30.67
2024-02-02T08:36:11.889Z,28.47
2024-02-02T08:38:38.800Z,26.67
2024-02-02T08:41:06.424Z,24.70
2024-02-02T08:43:33.452Z,27.60
2024-02-02T08:46:09.176Z,23.43
2024-02-02T08:48:37.008Z,24.43
2024-02-02T08:51:17.075Z,25.87
2024-02-02T08:53:44.084Z,24.57
2024-02-02T08:56:13.457Z,41.27
2024-02-02T08:58:40.602Z,23.80
2024-02-02T09:01:24.808Z,22.00
2024-02-02T09:03:53.404Z,21.23
2024-02-02T09:06:45.775Z,24.93
2024-02-02T09:09:16.000Z,25.87
2024-02-02T09:11:49.385Z,30.47
2024-02-02T09:16:53.133Z,22.47
2024-02-02T09:19:44.166Z,28.03
2024-02-02T09:22:17.403Z,21.63
2024-02-02T09:24:47.220Z,24.43
2024-02-02T09:27:14.441Z,18.23
2024-02-02T09:29:45.547Z,78.97
2024-02-02T09:32:14.245Z,24.10
2024-02-02T09:34:42.423Z,15.63
2024-02-02T09:37:10.748Z,15.83
2024-02-02T09:39:55.692Z,13.73
2024-02-02T09:42:28.343Z,21.83
2024-02-02T09:45:00.292Z,17.57
2024-02-02T09:47:45.505Z,17.33
2024-02-02T09:50:36.733Z,19.83
2024-02-02T09:53:06.344Z,17.03
2024-02-02T09:56:07.105Z,15.73
2024-02-02T09:58:42.733Z,15.17
2024-02-02T10:01:44.769Z,20.83
2024-02-02T10:04:33.787Z,16.53
2024-02-02T10:07:19.121Z,18.20
2024-02-02T10:09:51.688Z,15.13
2024-02-02T10:12:30.838Z,16.67
2024-02-02T10:15:17.706Z,12.90
2024-02-02T10:17:56.681Z,16.00
2024-02-02T10:20:26.140Z,17.57
2024-02-02T10:23:29.354Z,16.50
2024-02-02T10:26:04.990Z,12.63
2024-02-02T10:28:52.997Z,14.83
2024-02-02T10:31:37.922Z,16.67
2024-02-02T10:34:27.844Z,18.43
2024-02-02T10:37:24.185Z,17.17
2024-02-02T10:40:03.119Z,25.53
2024-02-02T10:42:49.559Z,30.90
2024-02-02T10:46:01.634Z,41.40
2024-02-02T10:48:37.390Z,27.00
2024-02-02T10:51:32.670Z,27.83
2024-02-02T10:54:21.481Z,21.97
2024-02-02T10:57:06.948Z,22.63
2024-02-02T11:00:08.673Z,26.07
2024-02-02T11:02:37.935Z,49.37
2024-02-02T11:05:23.382Z,53.57
2024-02-02T11:08:09.213Z,27.20
2024-02-02T11:10:43.597Z,32.00
2024-02-02T11:13:53.960Z,18.37
2024-02-02T11:16:41.842Z,25.77
2024-02-02T11:19:20.272Z,20.37
2024-02-02T11:22:09.815Z,14.97
2024-02-02T11:24:57.945Z,12.93
2024-02-02T11:27:38.804Z,17.90
2024-02-02T11:30:07.656Z,22.23
2024-02-02T11:32:52.639Z,21.87
2024-02-02T11:36:03.738Z,19.80
2024-02-02T11:38:55.843Z,13.53
2024-02-02T11:41:28.021Z,22.53
2024-02-02T11:43:56.548Z,19.53
2024-02-02T11:46:27.180Z,17.97
2024-02-02T11:49:06.975Z,17.63
2024-02-02T11:51:38.290Z,34.03
2024-02-02T11:54:38.068Z,17.90
2024-02-02T11:57:07.882Z,14.10
2024-02-02T11:59:41.020Z,17.80
2024-02-02T12:02:46.613Z,16.80
2024-02-02T12:05:19.517Z,11.27
2024-02-02T12:08:31.932Z,9.27
2024-02-02T12:10:59.998Z,7.93
2024-02-02T12:13:31.291Z,11.17
2024-02-02T12:15:58.652Z,9.50
2024-02-02T12:18:25.677Z,11.03
2024-02-02T12:20:52.348Z,10.03
2024-02-02T12:23:18.957Z,6.07
2024-02-02T12:25:45.868Z,6.50
2024-02-02T12:28:12.978Z,6.95
2024-02-02T12:30:39.638Z,7.57
2024-02-02T12:33:07.186Z,6.17
2024-02-02T12:35:34.034Z,6.27
2024-02-02T12:38:00.729Z,6.37
2024-02-02T12:40:28.805Z,6.20
2024-02-02T12:42:58.599Z,6.70
2024-02-02T12:45:25.200Z,7.27
2024-02-02T12:47:53.416Z,5.33
2024-02-02T12:50:22.164Z,5.97
2024-02-02T12:52:52.182Z,5.17
2024-02-02T12:55:20.029Z,4.43
2024-02-02T12:57:47.242Z,7.13
2024-02-02T13:00:17.098Z,6.83
2024-02-02T13:02:46.468Z,7.93
2024-02-02T13:05:14.330Z,9.83
2024-02-02T13:07:42.181Z,12.47
2024-02-02T13:10:11.421Z,13.23
2024-02-02T13:12:48.140Z,7.23
2024-02-02T13:15:19.556Z,5.13
2024-02-02T13:18:00.996Z,4.90
2024-02-02T13:20:34.435Z,5.80
2024-02-02T13:23:11.332Z,4.50
2024-02-02T13:25:41.903Z,3.97
2024-02-02T13:28:19.812Z,6.57
2024-02-02T13:30:55.081Z,3.50
2024-02-02T13:33:28.063Z,5.77
2024-02-02T13:35:55.760Z,8.87
2024-02-02T13:38:24.086Z,7.40
2024-02-02T13:40:53.005Z,7.37
2024-02-02T13:43:19.932Z,6.47
2024-02-02T13:45:48.166Z,4.63
2024-02-02T13:48:16.117Z,10.80
2024-02-02T13:50:52.216Z,8.13
2024-02-02T13:53:23.417Z,4.43
2024-02-02T13:55:51.209Z,5.87
2024-02-02T13:58:18.083Z,5.47
2024-02-02T14:00:45.039Z,3.50
2024-02-02T14:03:17.269Z,3.33
2024-02-02T14:05:45.187Z,3.97
2024-02-02T14:08:12.346Z,3.03
2024-02-02T14:10:43.391Z,2.87
2024-02-02T14:13:20.567Z,4.27
2024-02-02T14:15:49.676Z,4.57
2024-02-02T14:18:18.004Z,4.27
2024-02-02T14:20:44.648Z,3.57
2024-02-02T14:23:15.636Z,4.37
2024-02-02T14:25:43.354Z,7.10
2024-02-02T14:28:20.047Z,5.07
2024-02-02T14:30:48.089Z,3.83
2024-02-02T14:33:24.791Z,4.73
2024-02-02T14:35:53.015Z,5.77
2024-02-02T14:38:19.673Z,7.73
2024-02-02T14:40:48.544Z,7.53
2024-02-02T14:43:15.876Z,6.60
2024-02-02T14:45:42.542Z,7.47
2024-02-02T14:48:09.318Z,6.87
2024-02-02T14:50:36.709Z,7.93
2024-02-02T14:53:03.672Z,10.70
2024-02-02T14:55:33.615Z,11.83
2024-02-02T14:58:01.480Z,7.00
2024-02-02T15:00:31.903Z,12.77
2024-02-02T15:02:58.949Z,5.60
2024-02-02T15:05:26.718Z,11.17
2024-02-02T15:07:54.532Z,10.23
2024-02-02T15:10:21.400Z,10.70
2024-02-02T15:12:49.112Z,7.83
2024-02-02T15:15:16.249Z,5.67
2024-02-02T15:17:43.006Z,5.97
2024-02-02T15:20:12.217Z,8.67
2024-02-02T15:22:38.853Z,6.87
2024-02-02T15:25:06.695Z,5.27
2024-02-02T15:27:36.525Z,5.57
2024-02-02T15:30:06.232Z,5.77
2024-02-02T15:32:32.985Z,6.40
2024-02-02T15:34:59.714Z,6.93
2024-02-02T15:37:27.289Z,9.67
2024-02-02T15:39:58.372Z,6.23
2024-02-02T15:42:26.511Z,7.47
2024-02-02T15:44:54.167Z,9.07
2024-02-02T15:47:20.840Z,6.40
2024-02-02T15:49:48.082Z,8.00
2024-02-02T15:52:14.875Z,7.07
2024-02-02T15:54:41.579Z,7.47
2024-02-02T15:57:08.956Z,8.77
2024-02-02T15:59:35.592Z,12.00
2024-02-02T16:02:05.226Z,9.20
2024-02-02T16:04:33.088Z,5.07
2024-02-02T16:07:08.043Z,7.47
2024-02-02T16:09:40.534Z,11.53
2024-02-02T16:12:09.992Z,8.87
2024-02-02T16:14:37.266Z,12.70
2024-02-02T16:17:04.320Z,9.17
2024-02-02T16:19:31.150Z,8.90
2024-02-02T16:21:57.797Z,17.20
2024-02-02T16:24:24.463Z,22.57
2024-02-02T16:26:51.174Z,11.13
2024-02-02T16:29:17.792Z,13.07
2024-02-02T16:31:45.980Z,12.30
2024-02-02T16:34:13.513Z,14.77
2024-02-02T16:36:41.520Z,6.50
2024-02-02T16:39:16.148Z,26.67
2024-02-02T16:41:43.722Z,15.47
2024-02-02T16:44:10.683Z,13.67
2024-02-02T16:46:41.770Z,38.47
2024-02-02T16:49:09.682Z,8.73
2024-02-02T16:51:37.893Z,11.83
2024-02-02T16:54:07.275Z,12.13
2024-02-02T16:56:33.843Z,43.13
2024-02-02T16:59:00.826Z,11.27
2024-02-02T17:01:35.215Z,29.60
2024-02-02T17:04:02.576Z,15.33
2024-02-02T17:06:34.518Z,17.80
2024-02-02T17:09:01.830Z,20.93
2024-02-02T17:11:28.389Z,13.00
2024-02-02T17:13:55.349Z,8.50
2024-02-02T17:16:22.083Z,23.07
2024-02-02T17:18:48.986Z,25.13
2024-02-02T17:21:16.321Z,7.57
2024-02-02T17:23:42.988Z,28.30
2024-02-02T17:26:13.871Z,17.07
2024-02-02T17:28:41.354Z,7.07
2024-02-02T17:31:15.091Z,28.20
2024-02-02T17:33:42.681Z,14.50
2024-02-02T17:36:15.361Z,32.33
2024-02-02T17:38:43.393Z,13.97
2024-02-02T17:41:17.611Z,11.77
2024-02-02T17:43:45.646Z,33.37
2024-02-02T17:46:16.771Z,23.60
2024-02-02T17:48:43.662Z,23.63
2024-02-02T17:51:10.997Z,16.50
2024-02-02T17:53:41.107Z,10.00
2024-02-02T17:56:09.321Z,6.53
2024-02-02T17:58:36.455Z,21.10
2024-02-02T18:01:03.372Z,6.40
2024-02-02T18:03:31.256Z,12.13
2024-02-02T18:05:57.931Z,8.87
2024-02-02T18:08:25.542Z,7.37
2024-02-02T18:10:52.682Z,4.83
2024-02-02T18:13:21.800Z,6.67
2024-02-02T18:15:53.404Z,3.10
2024-02-02T18:18:20.874Z,4.97
2024-02-02T18:20:49.140Z,4.83
2024-02-02T18:23:15.803Z,5.03
2024-02-02T18:25:42.513Z,3.50
2024-02-02T18:28:13.788Z,3.57
2024-02-02T18:30:43.499Z,6.57
2024-02-02T18:33:11.016Z,5.53
2024-02-02T18:35:37.769Z,4.77
2024-02-02T18:38:04.576Z,3.40
2024-02-02T18:40:31.262Z,4.67
2024-02-02T18:42:57.991Z,6.37
2024-02-02T18:45:25.900Z,4.47
2024-02-02T18:47:52.562Z,3.27
2024-02-02T18:50:19.979Z,4.93
2024-02-02T18:52:50.534Z,3.70
2024-02-02T18:55:17.395Z,4.63
2024-02-02T18:57:44.100Z,3.23
2024-02-02T19:00:11.557Z,3.00
2024-02-02T19:02:38.176Z,3.33
2024-02-02T19:05:05.421Z,6.23
2024-02-02T19:07:33.758Z,3.53
2024-02-02T19:10:00.627Z,3.60
2024-02-02T19:12:27.266Z,3.73
2024-02-02T19:14:53.996Z,4.07
2024-02-02T19:17:20.573Z,4.20
2024-02-02T19:19:47.535Z,9.63
2024-02-02T19:22:14.124Z,3.63
2024-02-02T19:24:40.734Z,5.77
2024-02-02T19:27:07.414Z,3.20
2024-02-02T19:29:34.027Z,5.63
2024-02-02T19:32:00.596Z,5.33
2024-02-02T19:34:27.448Z,4.40
2024-02-02T19:36:54.125Z,4.07
2024-02-02T19:39:20.819Z,2.43
2024-02-02T19:41:47.419Z,4.40
2024-02-02T19:44:13.985Z,4.27
2024-02-02T19:46:40.529Z,2.80
2024-02-02T19:49:09.598Z,2.73
2024-02-02T19:51:39.272Z,3.10
2024-02-02T19:54:06.377Z,2.80
2024-02-02T19:56:33.017Z,5.37
2024-02-02T19:58:59.867Z,3.70
2024-02-02T20:01:27.108Z,3.07
2024-02-02T20:03:54.413Z,3.20
2024-02-02T20:06:21.807Z,4.33
2024-02-02T20:08:49.344Z,3.27
2024-02-02T20:11:20.578Z,4.30
2024-02-02T20:13:48.079Z,5.10
2024-02-02T20:16:22.189Z,3.70
2024-02-02T20:18:50.486Z,4.60
2024-02-02T20:21:18.847Z,2.87
2024-02-02T20:23:46.533Z,3.27
2024-02-02T20:26:19.812Z,2.73
2024-02-02T20:28:47.647Z,3.40
2024-02-02T20:31:14.521Z,5.43
2024-02-02T20:33:41.503Z,6.37
2024-02-02T20:36:08.737Z,3.73
2024-02-02T20:38:35.350Z,2.90
2024-02-02T20:41:06.360Z,3.73
2024-02-02T20:43:33.355Z,3.17
2024-02-02T20:46:00.189Z,3.43
2024-02-02T20:48:26.844Z,3.17
2024-02-02T20:50:54.522Z,2.53
2024-02-02T20:53:21.212Z,2.80
2024-02-02T20:55:47.838Z,2.40
2024-02-02T20:58:14.418Z,3.40
2024-02-02T21:00:41.192Z,2.70
2024-02-02T21:03:09.003Z,1.83
2024-02-02T21:05:36.606Z,3.37
2024-02-02T21:08:04.641Z,2.97
2024-02-02T21:10:32.109Z,3.33
2024-02-02T21:12:58.982Z,3.37
2024-02-02T21:15:30.022Z,3.27
2024-02-02T21:17:58.141Z,2.77
2024-02-02T21:20:32.077Z,1.93
2024-02-02T21:22:58.862Z,3.57
2024-02-02T21:25:25.417Z,2.87
2024-02-02T21:27:52.332Z,2.30
2024-02-02T21:30:19.082Z,2.63
2024-02-02T21:32:45.741Z,2.70
2024-02-02T21:35:12.361Z,2.40
2024-02-02T21:37:38.993Z,5.47
2024-02-02T21:40:06.019Z,2.03
2024-02-02T21:42:32.685Z,1.70
2024-02-02T21:44:59.341Z,3.33
2024-02-02T21:47:27.574Z,1.80
2024-02-02T21:49:54.564Z,3.27
2024-02-02T21:52:21.355Z,3.97
2024-02-02T21:54:48.037Z,3.87
2024-02-02T21:57:14.742Z,4.87
2024-02-02T21:59:41.347Z,4.20
2024-02-02T22:02:07.982Z,3.30
2024-02-02T22:04:34.592Z,4.93
2024-02-02T22:07:04.204Z,4.00
2024-02-02T22:09:31.565Z,4.17
2024-02-02T22:11:58.409Z,2.63
2024-02-02T22:14:25.712Z,3.47
2024-02-02T22:16:52.388Z,9.87
2024-02-02T22:19:19.127Z,8.20
2024-02-02T22:21:47.182Z,3.43
2024-02-02T22:24:13.875Z,2.07
2024-02-02T22:26:40.445Z,5.83
2024-02-02T22:29:07.055Z,3.00
2024-02-02T22:31:35.456Z,4.37
2024-02-02T22:34:03.054Z,2.67
2024-02-02T22:36:30.291Z,3.57
2024-02-02T22:38:57.170Z,4.43
2024-02-02T22:41:32.982Z,2.00
2024-02-02T22:44:01.888Z,2.67
2024-02-02T22:46:32.081Z,2.97
2024-02-02T22:48:58.989Z,3.07
2024-02-02T22:51:26.034Z,2.80
2024-02-02T22:53:53.045Z,2.00
2024-02-02T22:56:19.727Z,2.70
2024-02-02T22:58:46.328Z,2.57
2024-02-02T23:01:13.299Z,2.60
2024-02-02T23:03:40.043Z,2.07
2024-02-02T23:06:07.546Z,2.80
2024-02-02T23:08:34.252Z,3.87
2024-02-02T23:11:00.974Z,3.03
2024-02-02T23:13:27.653Z,2.77
2024-02-02T23:15:54.994Z,2.13
2024-02-02T23:18:22.818Z,3.00
2024-02-02T23:20:49.808Z,3.07
2024-02-02T23:23:24.128Z,2.50
2024-02-02T23:25:50.979Z,3.30
2024-02-02T23:28:18.592Z,2.90
2024-02-02T23:30:47.025Z,3.27
2024-02-02T23:33:14.488Z,2.70
2024-02-02T23:35:44.277Z,3.87
2024-02-02T23:38:10.867Z,3.43
2024-02-02T23:40:37.434Z,2.70
2024-02-02T23:43:04.496Z,2.67
2024-02-02T23:45:31.623Z,2.70
2024-02-02T23:47:58.394Z,3.10
2024-02-02T23:50:24.965Z,2.87
2024-02-02T23:52:51.525Z,3.37
2024-02-02T23:55:18.279Z,2.53
2024-02-02T23:57:44.897Z,4.30
